createdAt,value
2023-02-17T00:00:35.815Z,17.87
2023-02-17T00:05:55.016Z,26.60
2023-02-17T00:10:59.008Z,19.77
2023-02-17T00:16:08.086Z,25.73
2023-02-17T00:21:22.662Z,24.50
2023-02-17T00:26:25.522Z,24.87
2023-02-17T05:34:55.850Z,18.60
2023-02-17T05:39:58.710Z,22.07
2023-02-17T05:45:01.699Z,21.23
2023-02-17T05:50:05.301Z,21.27
2023-02-17T05:55:08.451Z,16.90
2023-02-17T06:00:11.923Z,20.60
2023-02-17T06:05:15.321Z,15.37
2023-02-17T06:10:18.405Z,22.60
2023-02-17T06:15:21.269Z,16.67
2023-02-17T06:20:24.171Z,19.67
2023-02-17T06:25:27.021Z,19.83
2023-02-17T06:30:30.004Z,21.03
2023-02-17T06:35:33.219Z,16.87
2023-02-17T06:40:36.067Z,19.40
2023-02-17T06:45:39.015Z,18.10
2023-02-17T06:50:41.866Z,21.73
2023-02-17T06:55:45.263Z,22.43
2023-02-17T07:00:48.136Z,19.57
2023-02-17T07:05:51.434Z,23.57
2023-02-17T07:10:54.519Z,19.80
2023-02-17T07:15:57.374Z,18.67
2023-02-17T07:21:00.286Z,22.00
2023-02-17T07:26:05.222Z,21.10
2023-02-17T07:31:09.352Z,22.03
2023-02-17T07:36:15.229Z,22.27
2023-02-17T07:41:20.789Z,13.97
2023-02-17T07:46:24.028Z,14.00
2023-02-17T07:51:27.791Z,22.50
2023-02-17T07:56:30.875Z,23.37
2023-02-17T08:01:33.838Z,18.47
2023-02-17T08:06:39.836Z,16.37
2023-02-17T08:12:01.615Z,20.20
2023-02-17T08:17:04.863Z,20.30
2023-02-17T08:22:07.702Z,12.07
2023-02-17T08:27:10.549Z,15.43
2023-02-17T08:32:15.214Z,16.97
2023-02-17T08:37:18.111Z,12.63
2023-02-17T08:42:20.983Z,13.27
2023-02-17T08:47:24.277Z,18.43
2023-02-17T08:52:27.178Z,18.43
2023-02-17T08:57:30.022Z,14.60
2023-02-17T09:02:32.940Z,15.13
2023-02-17T09:07:35.847Z,17.37
2023-02-17T09:12:38.817Z,14.83
2023-02-17T09:17:44.349Z,13.17
2023-02-17T09:22:47.208Z,19.97
2023-02-17T09:27:50.115Z,15.77
2023-02-17T09:32:53.010Z,15.87
2023-02-17T09:37:55.921Z,16.23
2023-02-17T09:42:58.840Z,12.57
2023-02-17T09:48:08.274Z,17.20
2023-02-17T09:53:16.935Z,17.00
2023-02-17T09:58:26.709Z,13.07
2023-02-17T10:03:42.059Z,12.00
2023-02-17T10:08:47.932Z,15.70
2023-02-17T10:13:52.033Z,10.80
2023-02-17T10:19:31.610Z,12.73
2023-02-17T10:24:34.442Z,10.00
2023-02-17T10:29:43.530Z,9.87
2023-02-17T10:35:00.080Z,18.43
2023-02-17T10:40:08.412Z,12.80
2023-02-17T10:45:31.432Z,11.87
2023-02-17T10:50:34.775Z,21.07
2023-02-17T10:56:02.005Z,12.33
2023-02-17T11:01:06.391Z,11.67
2023-02-17T11:06:20.669Z,15.23
2023-02-17T11:11:30.475Z,13.67
2023-02-17T11:16:47.529Z,16.43
2023-02-17T11:21:52.263Z,12.03
2023-02-17T11:27:05.749Z,16.00
2023-02-17T11:32:13.869Z,12.77
2023-02-17T11:37:23.770Z,10.53
2023-02-17T11:42:31.931Z,12.80
2023-02-17T11:48:05.044Z,14.43
2023-02-17T11:53:25.081Z,9.90
2023-02-17T11:58:30.808Z,17.30
2023-02-17T12:03:42.772Z,14.40
2023-02-17T12:09:36.149Z,10.63
2023-02-17T12:15:09.824Z,13.43
2023-02-17T12:20:31.594Z,13.20
2023-02-17T12:25:56.492Z,12.17
2023-02-17T12:31:07.415Z,10.40
2023-02-17T12:36:15.106Z,12.00
2023-02-17T12:41:25.944Z,14.07
2023-02-17T12:46:40.400Z,10.87
2023-02-17T12:51:55.641Z,15.83
2023-02-17T12:57:14.676Z,11.00
2023-02-17T13:02:20.317Z,10.87
2023-02-17T13:07:51.208Z,11.70
2023-02-17T13:13:00.149Z,11.87
2023-02-17T13:18:11.804Z,12.93
2023-02-17T13:23:26.326Z,13.10
2023-02-17T13:28:37.666Z,10.80
2023-02-17T13:33:52.345Z,15.00
2023-02-17T13:39:01.476Z,11.43
2023-02-17T13:44:32.354Z,13.23
2023-02-17T13:49:35.325Z,14.27
2023-02-17T13:54:38.271Z,10.83
2023-02-17T13:59:41.119Z,15.57
2023-02-17T14:04:44.221Z,12.73
2023-02-17T14:09:54.207Z,9.30
2023-02-17T14:14:57.072Z,14.50
2023-02-17T14:20:01.149Z,8.87
2023-02-17T14:25:08.526Z,11.47
2023-02-17T14:30:36.583Z,9.07
2023-02-17T14:35:39.630Z,9.10
2023-02-17T14:40:42.553Z,12.80
2023-02-17T14:45:45.728Z,10.30
2023-02-17T14:50:50.024Z,13.97
2023-02-17T14:56:21.751Z,14.03
2023-02-17T15:01:25.386Z,12.70
2023-02-17T15:06:41.797Z,13.10
2023-02-17T15:11:49.064Z,10.77
2023-02-17T15:16:52.342Z,11.93
2023-02-17T15:21:56.407Z,12.73
2023-02-17T15:26:59.775Z,9.23
2023-02-17T15:32:05.203Z,9.80
2023-02-17T15:37:09.872Z,13.90
2023-02-17T15:42:14.347Z,11.73
2023-02-17T15:47:19.358Z,8.27
2023-02-17T15:52:22.252Z,10.67
2023-02-17T15:57:25.832Z,12.87
2023-02-17T16:02:28.813Z,11.07
2023-02-17T16:07:31.953Z,7.17
2023-02-17T16:12:34.940Z,8.70
2023-02-17T16:17:37.983Z,8.80
2023-02-17T16:22:40.935Z,7.50
2023-02-17T16:27:45.309Z,7.73
2023-02-17T16:32:48.232Z,10.73
2023-02-17T16:38:23.199Z,7.57
2023-02-17T16:43:27.692Z,8.93
2023-02-17T16:48:32.885Z,9.03
2023-02-17T16:53:35.814Z,8.87
2023-02-17T16:58:38.819Z,7.93
2023-02-17T17:03:42.627Z,12.20
2023-02-17T17:08:45.929Z,12.10
2023-02-17T17:13:49.637Z,6.80
2023-02-17T17:18:53.255Z,8.37
2023-02-17T17:23:56.195Z,10.23
2023-02-17T17:28:59.141Z,7.60
2023-02-17T17:34:02.009Z,7.10
2023-02-17T17:39:06.833Z,6.97
2023-02-17T17:44:10.565Z,7.33
2023-02-17T17:49:14.510Z,10.40
2023-02-17T17:54:17.346Z,20.57
2023-02-17T17:59:20.344Z,10.07
2023-02-17T18:04:23.162Z,6.07
2023-02-17T18:09:32.090Z,8.13
2023-02-17T18:14:38.086Z,11.83
2023-02-17T18:19:41.268Z,11.47
2023-02-17T18:24:47.333Z,9.10
2023-02-17T18:29:50.329Z,9.10
2023-02-17T18:34:53.519Z,12.20
2023-02-17T18:39:56.630Z,10.03
2023-02-17T18:44:59.786Z,10.80
2023-02-17T18:50:03.006Z,7.10
2023-02-17T18:55:06.727Z,11.53
2023-02-17T19:00:10.798Z,11.03
2023-02-17T19:05:13.961Z,8.17
2023-02-17T19:10:17.006Z,11.47
2023-02-17T19:15:20.956Z,8.90
2023-02-17T19:20:27.630Z,9.57
2023-02-17T19:25:30.613Z,10.13
2023-02-17T19:30:33.605Z,8.43
2023-02-17T19:35:44.120Z,11.03
2023-02-17T19:40:47.465Z,9.57
2023-02-17T19:45:50.329Z,11.43
2023-02-17T19:50:58.344Z,9.57
2023-02-17T19:56:18.600Z,11.37
2023-02-17T20:01:27.277Z,9.63
2023-02-17T20:06:35.234Z,10.00
2023-02-17T20:11:38.634Z,12.17
2023-02-17T20:16:41.723Z,13.30
2023-02-17T20:21:46.093Z,9.60
2023-02-17T20:26:53.768Z,10.43
2023-02-17T20:31:56.756Z,10.67
2023-02-17T20:37:00.728Z,10.13
2023-02-17T20:42:04.036Z,8.30
2023-02-17T20:47:07.920Z,9.57
2023-02-17T20:52:11.066Z,10.47
2023-02-17T20:57:15.447Z,7.87
2023-02-17T21:02:18.366Z,12.40
2023-02-17T21:07:21.340Z,7.33
2023-02-17T21:12:24.271Z,11.40
2023-02-17T21:17:27.160Z,9.80
2023-02-17T21:22:30.497Z,6.67
2023-02-17T21:27:39.653Z,9.70
2023-02-17T21:32:42.810Z,6.77
2023-02-17T21:37:45.908Z,7.93
2023-02-17T21:43:07.498Z,6.67
2023-02-17T21:48:10.383Z,7.20
2023-02-17T21:53:13.314Z,6.53
2023-02-17T21:58:16.186Z,4.77
2023-02-17T22:03:19.065Z,6.57
2023-02-17T22:08:21.987Z,10.90
2023-02-17T22:13:25.336Z,8.43
2023-02-17T22:18:28.156Z,7.17
2023-02-17T22:23:31.028Z,8.87
2023-02-17T22:28:33.990Z,14.00
2023-02-17T22:33:36.862Z,4.70
2023-02-17T22:38:40.386Z,6.57
2023-02-17T22:43:44.274Z,6.33
2023-02-17T22:48:48.922Z,5.60
2023-02-17T22:53:52.160Z,6.60
2023-02-17T22:59:01.505Z,6.93
2023-02-17T23:04:05.275Z,4.50
2023-02-17T23:09:10.073Z,5.03
2023-02-17T23:14:14.043Z,6.60
2023-02-17T23:19:19.530Z,5.90
2023-02-17T23:24:23.598Z,6.83
2023-02-17T23:29:27.426Z,5.40
2023-02-17T23:34:30.424Z,8.00
2023-02-17T23:39:37.915Z,6.13
2023-02-17T23:44:40.898Z,5.47
2023-02-17T23:49:43.778Z,4.47
2023-02-17T23:54:46.597Z,3.27
2023-02-17T23:59:49.428Z,6.13
